Time;durP1;ratioP1;P1;durP2;ratioP2;P2;SDS_P1;SDS_P2;PMS_P1;PMS_P2;Temp;Humidity;BMP_temperature;BMP_pressure;BME280_temperature;BME280_humidity;BME280_pressure;Samples;Min_cycle;Max_cycle;Signal;HPM_P1;HPM_P2
2021/12/23 00:01:12;;;;;;;37.55;17.75;;;;;;;-9.43;68.22;94194.53;5092804;28;20067;-76
2021/12/23 00:03:37;;;;;;;40.05;20.20;;;;;;;-9.65;67.68;94155.91;5091733;28;20107;-76
2021/12/23 00:06:03;;;;;;;20.77;11.35;;;;;;;-9.32;67.91;94208.50;5091539;28;20047;-76
2021/12/23 00:08:28;;;;;;;11.82;7.50;;;;;;;-9.49;67.17;94172.09;5110074;28;20512;-76
2021/12/23 00:10:54;;;;;;;19.00;7.38;;;;;;;-9.85;67.61;94183.66;5091673;28;20027;-76
2021/12/23 00:13:19;;;;;;;11.93;7.10;;;;;;;-9.75;67.72;94207.56;5092455;28;20033;-78
2021/12/23 00:23:52;;;;;;;14.20;8.20;;;;;;;-9.71;68.16;94208.28;5113981;28;20093;-77
2021/12/23 00:26:18;;;;;;;17.52;10.52;;;;;;;-9.84;67.36;94199.28;5095827;28;20023;-76
2021/12/23 00:28:43;;;;;;;23.15;12.70;;;;;;;-9.87;69.05;94216.09;5113612;28;20550;-75
2021/12/23 00:31:09;;;;;;;23.88;10.43;;;;;;;-9.95;68.60;94198.66;5103340;28;20015;-76
2021/12/23 00:33:36;;;;;;;25.95;10.27;;;;;;;-9.95;67.94;94217.34;5112868;28;20023;-76
2021/12/23 00:36:04;;;;;;;19.17;9.57;;;;;;;-10.03;67.43;94194.56;5114488;28;20031;-78
2021/12/23 00:38:35;;;;;;;19.17;11.13;;;;;;;-9.96;67.60;94191.78;5114268;28;20031;-77
2021/12/23 00:41:03;;;;;;;17.35;10.27;;;;;;;-9.85;67.65;94213.78;5114221;28;20019;-77
2021/12/23 00:43:32;;;;;;;19.33;7.95;;;;;;;-9.97;67.97;94225.00;5114286;28;20023;-76
2021/12/23 00:45:58;;;;;;;8.95;6.07;;;;;;;-9.85;67.01;94215.72;5114317;28;20110;-78
2021/12/23 00:48:25;;;;;;;12.85;7.53;;;;;;;-9.73;65.63;94221.28;5115241;28;20034;-77
2021/12/23 00:50:50;;;;;;;15.68;9.07;;;;;;;-9.99;66.11;94218.53;5099726;28;20412;-75
2021/12/23 00:53:19;;;;;;;19.00;9.30;;;;;;;-10.03;67.19;94233.84;5097830;28;20024;-74
2021/12/23 00:55:49;;;;;;;18.30;8.40;;;;;;;-9.97;66.49;94219.66;5060287;28;20053;-74
2021/12/23 00:58:15;;;;;;;14.77;8.85;;;;;;;-9.95;65.89;94214.69;5097283;28;20515;-74
2021/12/23 01:00:41;;;;;;;11.75;6.20;;;;;;;-10.12;66.37;94195.06;5114689;28;20028;-74
2021/12/23 01:03:06;;;;;;;10.13;5.95;;;;;;;-10.43;66.64;94182.84;5096577;28;20058;-76
2021/12/23 01:05:32;;;;;;;11.10;5.78;;;;;;;-10.44;67.68;94213.34;5114758;28;20028;-77
2021/12/23 01:07:57;;;;;;;11.98;5.88;;;;;;;-10.18;66.95;94217.28;5113314;28;20055;-83
2021/12/23 01:10:24;;;;;;;22.40;9.25;;;;;;;-10.10;66.53;94208.00;5096684;28;20023;-85
2021/12/23 01:12:56;;;;;;;9.18;5.68;;;;;;;-10.04;66.73;94209.06;5096539;28;20095;-80
2021/12/23 01:17:56;;;;;;;13.93;6.72;;;;;;;-10.36;66.62;94200.69;5097217;28;20497;-86
2021/12/23 01:20:31;;;;;;;12.63;7.55;;;;;;;-10.40;66.51;94202.63;5097007;28;20119;-88
2021/12/23 01:23:03;;;;;;;11.02;5.45;;;;;;;-10.40;67.35;94195.38;5095989;28;20054;-77
2021/12/23 01:25:29;;;;;;;8.23;4.10;;;;;;;-10.37;66.52;94196.50;5114530;28;20020;-75
2021/12/23 01:27:55;;;;;;;9.07;4.10;;;;;;;-10.27;66.57;94195.63;5110897;28;20050;-76
2021/12/23 01:30:21;;;;;;;9.40;5.72;;;;;;;-10.59;66.85;94192.53;5112829;28;20019;-74
2021/12/23 01:32:49;;;;;;;15.27;5.47;;;;;;;-10.60;66.62;94201.69;5113384;28;20023;-74
2021/12/23 01:35:15;;;;;;;15.20;5.85;;;;;;;-10.40;66.19;94205.31;5113207;28;20408;-74
2021/12/23 01:37:41;;;;;;;30.27;7.68;;;;;;;-10.48;66.17;94198.53;5113086;28;20078;-84
2021/12/23 01:40:08;;;;;;;16.27;6.78;;;;;;;-10.79;66.79;94171.00;5113043;28;20493;-84
2021/12/23 01:42:34;;;;;;;16.45;7.20;;;;;;;-10.75;66.60;94189.63;5113603;28;20028;-84
2021/12/23 01:44:59;;;;;;;15.18;6.63;;;;;;;-10.59;66.65;94205.88;5095713;28;20080;-87
2021/12/23 01:47:25;;;;;;;16.73;8.25;;;;;;;-10.50;66.13;94211.50;5095739;28;20496;-83
2021/12/23 01:49:51;;;;;;;24.58;11.25;;;;;;;-10.48;66.31;94206.53;5095723;28;20043;-85
2021/12/23 01:52:17;;;;;;;18.02;8.70;;;;;;;-10.43;66.58;94200.75;5095810;28;20023;-81
2021/12/23 01:54:43;;;;;;;16.65;7.45;;;;;;;-10.62;66.98;94169.31;5113298;28;20104;-82
2021/12/23 01:57:09;;;;;;;24.48;10.68;;;;;;;-10.40;66.05;94190.06;5121375;27;20102;-82
2021/12/23 01:59:34;;;;;;;24.98;11.70;;;;;;;-10.57;66.43;94185.66;5113480;28;20020;-88
2021/12/23 02:02:00;;;;;;;16.30;10.40;;;;;;;-10.50;66.79;94203.50;5112012;28;20103;-88
2021/12/23 02:04:26;;;;;;;28.30;12.63;;;;;;;-10.59;65.89;94197.88;5111350;28;20043;-85
2021/12/23 02:06:52;;;;;;;26.50;11.95;;;;;;;-10.74;66.05;94175.91;5112757;27;20405;-82
2021/12/23 02:09:18;;;;;;;42.17;15.45;;;;;;;-10.82;66.57;94200.34;5097170;27;20096;-76
2021/12/23 02:11:44;;;;;;;21.73;12.07;;;;;;;-10.85;67.00;94192.00;5132839;27;20023;-83
2021/12/23 02:14:10;;;;;;;49.20;17.67;;;;;;;-11.07;68.24;94153.38;5097515;27;20122;-79
2021/12/23 02:16:36;;;;;;;28.42;14.00;;;;;;;-10.93;67.84;94155.88;5114652;27;20097;-78
2021/12/23 02:19:13;;;;;;;22.35;11.10;;;;;;;-10.66;66.42;94188.03;5128665;27;20024;-84
2021/12/23 02:21:42;;;;;;;32.75;14.00;;;;;;;-10.73;67.49;94163.31;5112155;28;20107;-84
2021/12/23 02:24:07;;;;;;;;;;;;;;;-10.49;67.64;94189.75;5112549;28;20031;-87
2021/12/23 02:26:37;;;;;;;47.22;22.52;;;;;;;-10.68;65.50;94176.25;5110199;28;19931;-86
2021/12/23 02:29:03;;;;;;;37.30;18.08;;;;;;;-10.88;66.10;94182.13;5110133;28;20011;-84
2021/12/23 02:31:28;;;;;;;40.22;19.08;;;;;;;-10.76;65.41;94196.88;5109986;28;20127;-83
2021/12/23 02:33:54;;;;;;;50.97;21.70;;;;;;;-10.89;66.63;94191.28;5111218;28;20032;-82
2021/12/23 02:36:19;;;;;;;41.17;18.33;;;;;;;-10.84;65.84;94176.75;5109565;28;20038;-81
2021/12/23 02:38:45;;;;;;;44.78;19.55;;;;;;;-11.10;66.11;94164.81;5111688;28;20024;-80
2021/12/23 02:41:10;;;;;;;43.88;21.35;;;;;;;-10.90;65.34;94187.13;5106797;28;20023;-78
2021/12/23 02:43:37;;;;;;;53.08;21.00;;;;;;;-11.00;65.44;94179.22;5093587;28;20031;-78
2021/12/23 02:46:02;;;;;;;23.15;11.02;;;;;;;-11.03;66.70;94175.41;5076326;28;20088;-82
2021/12/23 02:48:38;;;;;;;29.73;13.13;;;;;;;-11.12;66.68;94182.34;5094283;28;20028;-79
2021/12/23 02:51:10;;;;;;;20.02;10.95;;;;;;;-11.38;66.49;94172.25;5091592;28;20047;-78
2021/12/23 02:53:37;;;;;;;27.20;14.82;;;;;;;-11.40;66.08;94183.31;5093744;28;20027;-79
2021/12/23 02:56:04;;;;;;;22.92;12.25;;;;;;;-11.37;66.71;94166.56;5093468;28;20046;-79
2021/12/23 02:58:30;;;;;;;24.70;14.27;;;;;;;-11.14;65.93;94182.75;5112129;28;20015;-81
2021/12/23 03:00:57;;;;;;;32.03;15.68;;;;;;;-11.16;66.36;94171.72;5093418;28;20047;-82
2021/12/23 03:03:23;;;;;;;28.90;12.85;;;;;;;-11.38;65.61;94150.94;5112236;28;20043;-77
2021/12/23 03:05:51;;;;;;;34.50;16.95;;;;;;;-11.24;66.02;94178.22;5093638;28;20042;-80
2021/12/23 03:08:36;;;;;;;25.70;14.48;;;;;;;-11.26;65.53;94175.22;5093755;28;20059;-79
2021/12/23 03:11:04;;;;;;;24.50;11.38;;;;;;;-11.37;67.21;94179.88;5111817;28;20063;-76
2021/12/23 03:13:30;;;;;;;29.35;13.70;;;;;;;-11.39;67.48;94168.84;5093913;28;20019;-79
2021/12/23 03:15:56;;;;;;;30.23;13.93;;;;;;;-11.41;67.68;94173.78;5075251;28;20043;-77
2021/12/23 03:18:21;;;;;;;27.98;13.90;;;;;;;-11.26;67.88;94155.81;5093612;28;20081;-83
2021/12/23 03:20:47;;;;;;;18.15;11.85;;;;;;;-11.45;66.72;94145.66;5093248;28;20073;-83
2021/12/23 03:23:12;;;;;;;51.65;30.27;;;;;;;-11.53;65.40;94158.28;5094190;28;20072;-76
2021/12/23 03:25:38;;;;;;;38.03;20.73;;;;;;;-11.36;65.21;94160.06;5112096;28;20028;-77
2021/12/23 03:28:04;;;;;;;32.10;16.95;;;;;;;-11.72;65.58;94132.97;5112150;28;20027;-74
2021/12/23 03:30:29;;;;;;;19.92;10.23;;;;;;;-11.60;65.95;94176.97;5112222;28;20020;-74
2021/12/23 03:32:55;;;;;;;25.13;15.30;;;;;;;-11.70;66.11;94161.88;5111916;28;20119;-71
2021/12/23 03:35:20;;;;;;;23.80;12.27;;;;;;;-11.44;66.20;94169.25;5112081;28;20098;-72
2021/12/23 03:37:46;;;;;;;44.90;21.15;;;;;;;-11.64;65.34;94144.28;5112021;28;20047;-78
2021/12/23 03:40:12;;;;;;;24.25;12.25;;;;;;;-11.75;65.63;94147.06;5093703;28;20028;-73
2021/12/23 03:42:39;;;;;;;23.00;10.68;;;;;;;-11.72;67.27;94151.59;5093538;28;20027;-75
2021/12/23 03:45:07;;;;;;;27.48;14.15;;;;;;;-11.59;66.70;94165.19;5111932;28;20406;-72
2021/12/23 03:47:34;;;;;;;37.40;16.13;;;;;;;-11.54;67.17;94172.75;5093982;28;20488;-76
2021/12/23 03:49:59;;;;;;;30.25;11.30;;;;;;;-11.49;67.54;94142.28;5111778;28;20127;-75
2021/12/23 03:52:25;;;;;;;32.65;14.18;;;;;;;-11.29;66.00;94173.34;5111834;28;20103;-73
2021/12/23 03:54:51;;;;;;;32.75;13.68;;;;;;;-11.50;66.16;94162.09;5093108;28;20051;-73
2021/12/23 03:57:16;;;;;;;26.58;12.18;;;;;;;-11.57;66.32;94160.22;5110953;28;20385;-73
2021/12/23 03:59:42;;;;;;;23.08;12.43;;;;;;;-11.77;65.93;94127.28;5093554;28;20020;-78
2021/12/23 04:02:08;;;;;;;27.13;13.60;;;;;;;-11.65;65.74;94132.88;5110233;28;20458;-76
2021/12/23 04:04:33;;;;;;;30.92;15.07;;;;;;;-11.31;64.90;94172.22;5111638;28;20031;-74
2021/12/23 04:06:59;;;;;;;22.27;10.25;;;;;;;-11.39;64.78;94179.50;5110631;28;20028;-78
2021/12/23 04:09:24;;;;;;;41.88;14.00;;;;;;;-11.64;64.80;94178.91;5091412;28;20040;-75
2021/12/23 04:11:50;;;;;;;58.63;24.60;;;;;;;-11.84;64.35;94146.72;5109695;28;20497;-76
2021/12/23 04:14:15;;;;;;;31.98;14.80;;;;;;;-11.67;64.92;94177.03;5091468;28;20096;-77
2021/12/23 04:16:41;;;;;;;33.63;18.83;;;;;;;-11.55;64.60;94179.25;5109238;28;20088;-77
2021/12/23 04:19:09;;;;;;;33.55;18.20;;;;;;;-11.62;64.83;94181.94;5109916;28;20581;-76
2021/12/23 04:21:35;;;;;;;31.65;15.65;;;;;;;-11.77;65.37;94186.63;5108567;28;20047;-74
2021/12/23 04:24:01;;;;;;;28.02;15.25;;;;;;;-12.21;66.81;94164.44;5109289;28;20027;-75
2021/12/23 04:26:27;;;;;;;27.10;14.23;;;;;;;-11.99;67.49;94182.56;5109570;28;20505;-77
2021/12/23 04:28:52;;;;;;;37.85;18.27;;;;;;;-11.81;67.11;94190.47;5108464;28;20457;-72
2021/12/23 04:31:21;;;;;;;41.13;18.80;;;;;;;-12.03;66.44;94146.47;5110211;28;20045;-74
2021/12/23 04:33:48;;;;;;;40.03;19.48;;;;;;;-11.63;66.07;94175.13;5109580;28;20106;-76
2021/12/23 04:36:14;;;;;;;41.17;20.95;;;;;;;-11.99;65.66;94149.84;5110517;28;20027;-76
2021/12/23 04:38:41;;;;;;;34.78;16.30;;;;;;;-11.73;66.28;94178.59;5091583;28;20531;-75
2021/12/23 04:41:08;;;;;;;36.25;17.52;;;;;;;-11.79;65.98;94180.94;5098844;28;20048;-74
2021/12/23 04:43:34;;;;;;;23.73;13.38;;;;;;;-11.94;65.79;94184.81;5108851;28;20035;-73
2021/12/23 04:46:00;;;;;;;25.80;12.30;;;;;;;-12.01;65.15;94155.56;5092638;28;20024;-75
2021/12/23 04:48:26;;;;;;;40.25;19.73;;;;;;;-12.00;64.95;94172.31;5108696;28;20023;-79
2021/12/23 04:50:51;;;;;;;73.13;34.00;;;;;;;-12.07;64.85;94175.00;5108791;28;20027;-79
2021/12/23 04:53:17;;;;;;;33.63;17.08;;;;;;;-12.21;65.92;94164.44;5109733;28;20052;-76
2021/12/23 04:55:43;;;;;;;28.80;13.13;;;;;;;-11.83;66.98;94196.19;5110364;28;20027;-78
2021/12/23 04:58:09;;;;;;;21.00;13.30;;;;;;;-11.82;65.84;94194.25;5098582;28;20452;-73
2021/12/23 05:00:34;;;;;;;27.13;13.48;;;;;;;-12.08;65.59;94194.78;5093068;28;20034;-79
2021/12/23 05:03:00;;;;;;;26.25;13.93;;;;;;;-11.99;66.00;94197.75;5111032;28;20024;-81
2021/12/23 05:05:26;;;;;;;26.58;13.48;;;;;;;-11.83;64.89;94200.75;5093022;28;20031;-82
2021/12/23 05:07:52;;;;;;;24.33;10.73;;;;;;;-12.03;64.23;94181.06;5093182;28;20034;-79
2021/12/23 05:10:18;;;;;;;24.98;13.40;;;;;;;-12.06;64.15;94179.19;5114970;28;20020;-81
2021/12/23 05:12:45;;;;;;;22.35;11.50;;;;;;;-12.00;64.82;94209.56;5114342;28;20104;-87
2021/12/23 05:15:15;;;;;;;16.75;9.82;;;;;;;-12.22;64.93;94186.84;5114918;28;20103;-75
2021/12/23 05:17:41;;;;;;;28.65;12.30;;;;;;;-12.08;64.95;94203.50;5096592;28;20420;-82
2021/12/23 05:20:09;;;;;;;19.85;11.38;;;;;;;-12.01;64.39;94202.72;5096454;28;20024;-77
2021/12/23 05:22:34;;;;;;;42.95;13.68;;;;;;;-12.24;64.68;94181.16;5096534;28;20016;-87
2021/12/23 05:25:00;;;;;;;26.90;12.63;;;;;;;-12.18;64.50;94183.03;5114327;28;20026;-86
2021/12/23 05:27:26;;;;;;;36.28;16.10;;;;;;;-12.16;65.19;94201.25;5096288;28;20519;-86
2021/12/23 05:29:51;;;;;;;43.67;19.25;;;;;;;-12.49;65.99;94189.22;5114465;28;20072;-85
2021/12/23 05:32:17;;;;;;;34.40;16.20;;;;;;;-12.39;65.39;94175.13;5096311;28;20027;-87
2021/12/23 05:34:42;;;;;;;34.05;16.70;;;;;;;-12.22;65.00;94194.84;5096088;28;20024;-86
2021/12/23 05:37:08;;;;;;;27.73;11.65;;;;;;;-12.36;65.02;94189.56;5077719;28;20015;-87
2021/12/23 05:39:34;;;;;;;22.08;10.43;;;;;;;-12.28;64.54;94191.06;5095920;28;20050;-88
2021/12/23 05:41:59;;;;;;;53.47;20.23;;;;;;;-12.12;64.95;94202.00;5114225;28;20515;-82
2021/12/23 05:44:25;;;;;;;50.35;22.60;;;;;;;-12.14;64.83;94199.75;5113047;28;20408;-80
2021/12/23 05:46:50;;;;;;;66.28;21.75;;;;;;;-12.13;64.25;94198.59;5113487;27;20016;-84
2021/12/23 05:49:16;;;;;;;57.53;20.35;;;;;;;-12.29;64.63;94178.88;5095085;28;20011;-77
2021/12/23 05:51:41;;;;;;;30.70;15.32;;;;;;;-12.39;64.90;94190.34;5110941;28;20047;-77
2021/12/23 05:54:07;;;;;;;26.55;14.48;;;;;;;-12.54;65.04;94161.09;5113460;28;20047;-77
2021/12/23 05:56:32;;;;;;;21.08;11.20;;;;;;;-12.40;64.68;94176.28;5113103;28;20020;-76
2021/12/23 05:58:58;;;;;;;19.60;12.32;;;;;;;-12.49;64.43;94178.56;5113220;28;20084;-80
2021/12/23 06:01:24;;;;;;;22.67;10.38;;;;;;;-12.42;64.28;94191.88;5095374;28;20027;-80
2021/12/23 06:03:49;;;;;;;17.67;11.07;;;;;;;-12.53;64.07;94207.84;5113371;28;20412;-80
2021/12/23 06:06:15;;;;;;;23.02;12.07;;;;;;;-12.42;64.02;94207.81;5094730;28;20016;-81
2021/12/23 06:08:41;;;;;;;17.70;8.57;;;;;;;-12.35;64.56;94185.75;5094005;28;20048;-79
2021/12/23 06:11:07;;;;;;;21.05;11.57;;;;;;;-12.49;64.75;94210.50;5093531;28;20024;-79
2021/12/23 06:13:33;;;;;;;15.05;8.88;;;;;;;-12.68;66.42;94187.75;5112028;28;20028;-79
2021/12/23 06:15:58;;;;;;;14.25;9.68;;;;;;;-12.41;66.94;94212.75;5112737;28;20115;-79
2021/12/23 06:18:24;;;;;;;16.08;8.88;;;;;;;-12.23;67.64;94215.34;5112608;28;20407;-83
2021/12/23 06:20:49;;;;;;;19.55;9.68;;;;;;;-12.32;66.62;94222.25;5111183;28;20023;-85
2021/12/23 06:23:15;;;;;;;22.08;10.35;;;;;;;-12.22;67.41;94200.16;5111807;28;20500;-87
2021/12/23 06:25:41;;;;;;;22.75;10.88;;;;;;;-12.05;66.29;94220.63;5094375;28;20023;-83
2021/12/23 06:28:07;;;;;;;29.85;16.08;;;;;;;-12.03;64.83;94211.09;5095046;28;20099;-81
2021/12/23 06:30:33;;;;;;;57.70;22.05;;;;;;;-11.90;63.74;94193.53;5112765;28;20019;-88
2021/12/23 06:32:58;;;;;;;32.30;13.18;;;;;;;-11.77;63.80;94205.28;5094535;28;20047;-84
2021/12/23 06:35:26;;;;;;;27.48;14.00;;;;;;;-11.86;63.86;94188.97;5112800;28;20035;-80
2021/12/23 06:37:52;;;;;;;42.63;17.60;;;;;;;-11.88;64.01;94207.22;5077549;28;20019;-81
2021/12/23 06:40:18;;;;;;;49.08;18.98;;;;;;;-12.23;64.96;94182.69;5094843;28;20047;-82
2021/12/23 06:42:44;;;;;;;54.20;26.33;;;;;;;-11.96;65.01;94208.41;5094681;28;20020;-85
2021/12/23 06:45:10;;;;;;;53.75;23.55;;;;;;;-12.05;65.74;94217.94;5094944;28;20406;-86
2021/12/23 06:47:37;;;;;;;36.60;16.15;;;;;;;-12.12;66.16;94204.66;5112412;28;20023;-81
2021/12/23 06:50:06;;;;;;;33.25;13.80;;;;;;;-11.88;64.60;94215.22;5094636;28;20516;-85
2021/12/23 06:52:32;;;;;;;20.20;8.10;;;;;;;-12.25;65.12;94203.56;5094603;28;20027;-84
2021/12/23 06:54:58;;;;;;;17.25;8.70;;;;;;;-12.09;63.86;94203.91;5094531;28;20031;-84
2021/12/23 06:57:26;;;;;;;41.22;18.45;;;;;;;-11.96;64.52;94221.72;5094287;28;20496;-87
2021/12/23 06:59:51;;;;;;;29.55;15.15;;;;;;;-12.23;65.71;94198.66;5112562;28;20102;-79
2021/12/23 07:02:17;;;;;;;61.03;24.83;;;;;;;-12.51;66.25;94194.16;5093935;28;20107;-78
2021/12/23 07:04:44;;;;;;;80.78;39.30;;;;;;;-12.19;65.57;94218.03;5102913;28;20115;-82
2021/12/23 07:07:12;;;;;;;94.05;41.03;;;;;;;-12.08;66.18;94222.13;5110106;28;20019;-84
2021/12/23 07:09:40;;;;;;;75.23;31.00;;;;;;;-12.08;67.29;94224.81;5073471;28;20119;-80
2021/12/23 07:12:08;;;;;;;69.78;30.08;;;;;;;-11.90;66.97;94201.53;5076713;28;20524;-77
2021/12/23 07:14:34;;;;;;;61.80;26.75;;;;;;;-11.72;67.05;94204.88;5069315;28;20028;-82
2021/12/23 07:17:00;;;;;;;61.85;28.27;;;;;;;-11.54;66.75;94198.66;5067816;28;20472;-80
2021/12/23 07:19:27;;;;;;;79.25;33.47;;;;;;;-11.72;67.09;94182.81;5067904;28;20027;-79
2021/12/23 07:21:52;;;;;;;74.40;31.17;;;;;;;-11.24;67.18;94207.56;5068029;28;20025;-79
2021/12/23 07:24:18;;;;;;;66.45;34.60;;;;;;;-10.92;66.21;94177.97;5069278;28;20737;-83
2021/12/23 07:26:44;;;;;;;70.07;34.15;;;;;;;-10.17;65.09;94216.09;5068253;28;20029;-82
2021/12/23 07:29:09;;;;;;;116.45;52.78;;;;;;;-9.69;64.42;94189.16;5072209;28;20105;-84
2021/12/23 07:31:35;;;;;;;185.88;82.38;;;;;;;-9.21;63.01;94213.69;5089611;28;20024;-82
2021/12/23 07:34:00;;;;;;;180.43;84.72;;;;;;;-9.19;62.23;94211.38;5089080;28;20031;-86
2021/12/23 07:36:27;;;;;;;170.65;75.25;;;;;;;-9.09;62.38;94199.75;5071265;28;20035;-85
2021/12/23 07:38:54;;;;;;;120.35;55.20;;;;;;;-9.10;61.50;94192.16;5071460;28;20020;-81
2021/12/23 07:41:20;;;;;;;158.30;67.45;;;;;;;-8.55;60.98;94213.78;5071159;28;20647;-81
2021/12/23 07:44:07;;;;;;;130.32;59.63;;;;;;;-8.58;60.50;94193.97;5071135;28;20107;-80
2021/12/23 07:46:34;;;;;;;120.88;52.53;;;;;;;-8.19;59.99;94193.22;5085227;28;20035;-84
2021/12/23 07:48:59;;;;;;;123.10;51.67;;;;;;;-8.01;60.41;94185.59;5080926;28;20036;-79
2021/12/23 07:51:25;;;;;;;108.43;51.35;;;;;;;-7.30;59.48;94202.91;5076400;28;20115;-83
2021/12/23 07:53:53;;;;;;;112.45;51.15;;;;;;;-6.53;58.07;94190.38;5072183;28;20028;-81
2021/12/23 07:56:19;;;;;;;126.38;59.25;;;;;;;-5.52;55.46;94204.91;5091125;28;20090;-81
2021/12/23 07:58:45;;;;;;;144.18;67.88;;;;;;;-4.47;53.15;94186.72;5102586;28;20119;-83
2021/12/23 08:01:12;;;;;;;144.15;61.60;;;;;;;-3.68;51.04;94190.97;5089803;28;20059;-82
2021/12/23 08:03:37;;;;;;;125.10;58.95;;;;;;;-2.98;48.88;94165.97;5107285;28;20032;-84
2021/12/23 08:06:03;;;;;;;104.50;55.92;;;;;;;-1.67;47.66;94195.38;5097462;28;20085;-84
2021/12/23 08:08:29;;;;;;;115.78;62.42;;;;;;;-0.85;44.31;94165.41;5078668;28;20885;-85
2021/12/23 08:10:54;;;;;;;70.93;41.92;;;;;;;-0.37;42.90;94171.66;5110619;28;20479;-84
2021/12/23 08:13:20;;;;;;;79.75;39.35;;;;;;;0.04;41.46;94194.47;5074170;28;20526;-85
2021/12/23 08:15:45;;;;;;;57.22;34.47;;;;;;;0.54;41.16;94196.22;5091503;28;20019;-86
2021/12/23 08:18:11;;;;;;;50.15;30.75;;;;;;;0.73;39.53;94179.28;5074212;28;20034;-86
2021/12/23 08:20:36;;;;;;;40.00;25.52;;;;;;;1.65;38.67;94189.88;5108592;28;20031;-83
2021/12/23 08:23:03;;;;;;;27.73;16.23;;;;;;;2.26;37.74;94184.03;5109140;28;20036;-84
2021/12/23 08:25:28;;;;;;;16.80;10.68;;;;;;;2.65;36.60;94178.25;5108024;28;20101;-81
2021/12/23 08:27:54;;;;;;;31.73;24.95;;;;;;;3.53;36.04;94203.63;5108005;28;20047;-78
2021/12/23 08:30:21;;;;;;;21.58;13.85;;;;;;;4.08;34.63;94175.16;5107332;28;20062;-82
2021/12/23 08:32:48;;;;;;;16.58;10.18;;;;;;;4.16;33.90;94187.16;5089104;28;20477;-82
2021/12/23 08:35:15;;;;;;;18.58;11.68;;;;;;;4.36;33.80;94197.91;5107996;28;20085;-75
2021/12/23 08:37:46;;;;;;;17.50;11.82;;;;;;;4.72;33.70;94183.38;5090585;28;20548;-78
2021/12/23 08:40:15;;;;;;;19.50;15.07;;;;;;;5.31;32.15;94184.00;5107802;28;20100;-76
2021/12/23 08:42:40;;;;;;;16.90;11.65;;;;;;;5.90;31.30;94189.25;5108148;28;20038;-82
2021/12/23 08:45:07;;;;;;;18.67;12.20;;;;;;;6.32;31.10;94190.16;5094329;28;20047;-77
2021/12/23 08:47:36;;;;;;;18.38;13.70;;;;;;;6.99;30.11;94180.38;5075794;28;20028;-83
2021/12/23 08:50:03;;;;;;;15.13;10.93;;;;;;;6.93;29.75;94160.44;5094081;28;20050;-84
2021/12/23 08:52:29;;;;;;;11.00;9.15;;;;;;;6.93;29.54;94137.75;5116266;28;20027;-77
2021/12/23 08:54:55;;;;;;;25.13;12.25;;;;;;;7.04;29.97;94165.88;5082368;28;20039;-83
2021/12/23 08:57:20;;;;;;;12.90;9.20;;;;;;;7.10;30.27;94165.84;5099373;28;20092;-82
2021/12/23 08:59:46;;;;;;;15.27;10.52;;;;;;;7.42;29.35;94150.38;5117754;28;20114;-82
2021/12/23 09:02:12;;;;;;;16.95;11.88;;;;;;;7.29;30.31;94159.22;5105040;28;20492;-81
2021/12/23 09:07:59;;;;;;;28.85;18.67;;;;;;;7.68;29.50;94119.69;5101127;28;20115;-81
2021/12/23 09:10:25;;;;;;;25.52;16.33;;;;;;;8.06;28.29;94144.06;5104815;28;20549;-78
2021/12/23 09:12:51;;;;;;;27.45;17.73;;;;;;;8.13;28.42;94138.00;5110377;28;20417;-75
2021/12/23 09:15:18;;;;;;;21.90;14.82;;;;;;;7.95;27.98;94146.91;5111118;28;20420;-78
2021/12/23 09:17:44;;;;;;;18.40;11.68;;;;;;;8.48;28.89;94122.63;5093082;28;20055;-77
2021/12/23 09:20:11;;;;;;;49.45;27.98;;;;;;;8.48;28.13;94139.13;5076299;28;20524;-75
2021/12/23 09:22:37;;;;;;;26.60;16.52;;;;;;;8.37;28.02;94138.00;5110524;28;20088;-76
2021/12/23 09:25:10;;;;;;;25.33;16.98;;;;;;;8.55;29.14;94133.81;5091615;28;20032;-76
2021/12/23 09:27:53;;;;;;;21.63;14.98;;;;;;;9.34;27.16;94121.19;5106884;28;20031;-76
2021/12/23 09:33:04;;;;;;;11.05;8.07;;;;;;;8.92;27.99;94067.69;5110921;28;20038;-76
2021/12/23 09:35:32;;;;;;;16.45;10.98;;;;;;;9.84;28.21;94101.06;5092578;28;20023;-74
2021/12/23 09:37:59;;;;;;;14.77;11.10;;;;;;;9.56;27.38;94100.78;5111024;28;20038;-74
2021/12/23 09:40:25;;;;;;;14.43;11.55;;;;;;;10.25;27.44;94098.56;5092527;28;20035;-74
2021/12/23 09:42:52;;;;;;;14.32;10.90;;;;;;;9.90;27.09;94093.41;5092313;28;20035;-75
2021/12/23 09:45:18;;;;;;;17.05;12.52;;;;;;;9.66;27.71;94074.28;5109802;28;20060;-73
2021/12/23 09:47:47;;;;;;;19.25;13.10;;;;;;;9.85;27.96;94086.00;5092482;28;20019;-74
2021/12/23 09:50:17;;;;;;;32.08;21.92;;;;;;;10.23;27.51;94072.78;5092067;28;20038;-73
2021/12/23 09:52:47;;;;;;;25.20;14.85;;;;;;;10.06;27.15;94081.34;5110408;28;20189;-73
2021/12/23 09:55:16;;;;;;;22.63;16.23;;;;;;;9.61;26.68;94081.41;5089157;28;20028;-74
2021/12/23 09:57:44;;;;;;;18.38;12.68;;;;;;;9.27;29.31;94085.97;5091882;28;20031;-75
2021/12/23 10:00:11;;;;;;;29.38;19.63;;;;;;;9.18;27.94;94078.81;5092310;28;20038;-74
2021/12/23 10:02:40;;;;;;;25.08;17.25;;;;;;;9.52;28.11;94081.06;5110609;28;20027;-74
2021/12/23 10:05:09;;;;;;;32.03;23.15;;;;;;;9.51;28.68;94050.00;5092354;28;20409;-74
2021/12/23 10:07:34;;;;;;;31.38;21.25;;;;;;;10.37;28.35;94061.19;5091931;28;20042;-74
2021/12/23 10:10:08;;;;;;;27.75;18.58;;;;;;;10.82;27.68;94063.03;5110302;28;20023;-78
2021/12/23 10:32:11;;;;;;;31.77;19.23;;;;;;;11.01;28.13;94041.50;5054254;28;20125;-74
2021/12/23 10:37:24;;;;;;;18.63;13.50;;;;;;;11.14;27.86;94033.91;5051171;28;20107;-74
2021/12/23 10:39:50;;;;;;;19.75;12.13;;;;;;;10.82;27.86;94030.63;5067893;28;20134;-74
2021/12/23 10:42:18;;;;;;;14.05;10.88;;;;;;;10.23;28.92;94012.06;5061089;28;20035;-74
2021/12/23 10:44:58;;;;;;;15.25;12.13;;;;;;;10.80;29.08;94010.34;5086637;28;20520;-74
2021/12/23 10:47:47;;;;;;;14.48;10.88;;;;;;;11.57;27.36;94007.69;5089203;28;20028;-75
2021/12/23 10:50:50;;;;;;;13.32;10.52;;;;;;;11.20;27.54;94006.09;5071870;28;20517;-75
2021/12/23 10:59:10;;;;;;;18.95;13.70;;;;;;;11.95;26.94;94001.16;5070804;28;20169;-75
2021/12/23 11:01:39;;;;;;;;;;;;;;;11.55;28.14;94011.03;5064767;28;20028;-75
2021/12/23 11:04:07;;;;;;;16.58;12.30;;;;;;;11.97;26.84;93970.94;5065708;28;19919;-76
2021/12/23 11:06:46;;;;;;;21.42;16.45;;;;;;;11.84;26.58;93993.19;5071684;28;20823;-74
2021/12/23 11:42:02;;;;;;;8.00;5.90;;;;;;;8.41;27.42;93931.34;5086197;28;20036;-77
2021/12/23 11:44:31;;;;;;;9.38;6.45;;;;;;;8.51;27.21;93965.44;5072724;28;20035;-76
2021/12/23 11:46:58;;;;;;;;;;;;;;;8.80;29.45;93953.50;5088096;28;20054;-75
2021/12/23 11:49:24;;;;;;;10.77;7.57;;;;;;;8.78;30.10;93931.25;5085541;28;19918;-76
2021/12/23 11:54:30;;;;;;;8.77;5.90;;;;;;;7.62;28.44;93952.13;5112770;27;20026;-75
2021/12/23 11:57:16;;;;;;;;;;;;;;;7.79;29.38;93947.16;5101890;28;20033;-75
2021/12/23 11:59:45;;;;;;;10.30;7.32;;;;;;;7.53;29.13;93944.22;5107415;28;20010;-75
2021/12/23 12:02:16;;;;;;;16.30;10.30;;;;;;;7.27;30.46;93942.03;5090080;28;20108;-75
2021/12/23 12:04:42;;;;;;;10.80;7.50;;;;;;;6.87;30.61;93940.91;5090509;28;20039;-75
2021/12/23 12:07:20;;;;;;;15.77;9.60;;;;;;;7.16;31.02;93939.38;5090466;28;20028;-75
2021/12/23 12:10:07;;;;;;;8.75;6.80;;;;;;;7.21;29.19;93946.81;5071870;28;20125;-75
2021/12/23 12:12:34;;;;;;;10.55;6.50;;;;;;;7.32;31.07;93943.94;5070892;28;20386;-76
2021/12/23 12:15:00;;;;;;;11.82;8.25;;;;;;;7.23;30.06;93938.81;5098658;28;20032;-77
2021/12/23 12:17:26;;;;;;;9.88;7.43;;;;;;;7.18;31.57;93945.09;5106946;28;20031;-75
2021/12/23 12:20:08;;;;;;;17.65;11.38;;;;;;;6.84;30.30;93946.69;5111659;28;20032;-75
2021/12/23 12:22:58;;;;;;;15.23;10.23;;;;;;;6.72;31.25;93943.28;5112913;28;20051;-76
2021/12/23 12:25:23;;;;;;;21.88;12.80;;;;;;;6.94;32.18;93941.59;5113600;28;20427;-75
2021/12/23 12:27:50;;;;;;;11.85;8.82;;;;;;;7.05;31.01;93939.50;5113365;28;20035;-76
2021/12/23 12:30:18;;;;;;;18.77;11.32;;;;;;;7.23;31.78;93935.31;5113848;28;20068;-76
2021/12/23 12:32:44;;;;;;;12.90;7.38;;;;;;;7.25;30.56;93928.06;5097226;23;20055;-56
2021/12/23 12:35:29;;;;;;;12.32;7.88;;;;;;;7.26;32.90;93935.03;5092798;28;20500;-54
2021/12/23 12:38:13;;;;;;;13.07;7.18;;;;;;;6.98;33.51;93922.84;5093251;28;20720;-55